Edmonton City Centre, Alberta

5:14 PM MST on January 30, 2015 (GMT -0700)
Edmonton City Centre | Change Station
CLOSE
Current Station
Airport
Location: Edmonton City Centre,
Elevation: 2201 ft
Nearby Weather Stations

Elev 2201 ft 53.57 °N, 113.52 °W | Updated 8 minutes ago

Light Snow
Light Snow
14 °F
Feels Like -1 °F
N
15
Wind Variable Wind from NNE
Gusts 21 mph

Tomorrow is forecast to be nearly the same temperature as today.

Today
High -- | Low -- °F
--% Chance of Precip.
Yesterday
High -- | Low -- °F
Precip. -- in
8:22 AM 5:12 PM
Waxing Gibbous, 86% visible
Pressure 30.33 in
Visibility 0.8 miles
Clouds
Windchill -1 °F
Dew Point 9 °F
Humidity 79%
Rainfall 0.00 in
Snow Depth Not available.
UV Not available.
Pollen Not available.
Air Quality Not available.
Flu Activity Not available.
SPECI CYXD 310006Z AUTO 02013G18KT 3/4SM -SN VV005 M10/M13 A3033

More Conditions Fewer Conditions

Pressure 30.33 in
Visibility 0.8 miles
Clouds
Windchill -1 °F
Dew Point 9 °F
Humidity 79%
Rainfall 0.00 in
Snow Depth Not available.
UV Not available.
Pollen Not available.
Air Quality Not available.
Flu Activity Not available.
SPECI CYXD 310006Z AUTO 02013G18KT 3/4SM -SN VV005 M10/M13 A3033

More Conditions Fewer Conditions

10-Day Weather Forecast

Almanac

Astronomy

Jan. 30, 2015 Rise Set
Actual Time
Civil Twilight
Nautical Twilight
Astronomical Twilight
Moon
Length of Visible Light
Length of Day
Tomorrow will be .
, % of the Moon is Illuminated

Today's Extremes

Country Highs Country Lows

Community

WunderPhotos

Upload Photos

1,791,939 photos uploaded!

WunderBlogs® & News

Nearby

Air Quality

  Air Quality AQ Index Pollutant
Not available.

Snow Depth

Station Depth Elevation

Earthquake Activity

City Distance Mag. Time & Date
Minimum magnitude displayed is 2.5.

Coastal Water Temperatures

Place Temperature

Nearby Weather Stations